Time;durP1;ratioP1;P1;durP2;ratioP2;P2;SDS_P1;SDS_P2;PMS_P1;PMS_P2;Temp;Humidity;BMP_temperature;BMP_pressure;BME280_temperature;BME280_humidity;BME280_pressure;Samples;Min_cycle;Max_cycle;Signal;HPM_P1;HPM_P2
2021/09/06 00:00:30;;;;;;;7.45;6.47;;;;;;;;;;5095692;28;20188;-84
2021/09/06 00:02:57;;;;;;;7.63;6.78;;;;;;;;;;5096032;28;20282;-84
2021/09/06 00:05:26;;;;;;;7.57;6.88;;;;;;;;;;5096304;28;20207;-84
2021/09/06 00:07:54;;;;;;;8.18;7.35;;;;;;;;;;5096628;28;20207;-84
2021/09/06 00:10:40;;;;;;;10.32;7.78;;;;;;;;;;5095577;28;20185;-83
2021/09/06 00:13:10;;;;;;;8.57;7.20;;;;;;;;;;5095472;28;20234;-84
2021/09/06 00:15:39;;;;;;;7.60;6.80;;;;;;;;;;5095635;28;20224;-84
2021/09/06 00:18:07;;;;;;;9.52;8.43;;;;;;;;;;5096217;28;20200;-84
2021/09/06 00:20:38;;;;;;;9.13;8.13;;;;;;;;;;5096447;28;20556;-84
2021/09/06 00:23:06;;;;;;;9.05;7.88;;;;;;;;;;5096233;28;20199;-84
2021/09/06 00:25:34;;;;;;;9.55;8.63;;;;;;;;;;5094847;28;20189;-83
2021/09/06 00:28:01;;;;;;;9.50;8.38;;;;;;;;;;5095320;28;20664;-82
2021/09/06 00:30:29;;;;;;;9.13;8.05;;;;;;;;;;5095634;28;20564;-84
2021/09/06 00:32:57;;;;;;;9.48;8.52;;;;;;;;;;5095676;28;20180;-82
2021/09/06 00:35:24;;;;;;;9.73;8.30;;;;;;;;;;5095293;28;20200;-82
2021/09/06 00:37:54;;;;;;;11.25;8.15;;;;;;;;;;5094540;28;20208;-83
2021/09/06 00:40:21;;;;;;;9.07;7.90;;;;;;;;;;5095958;28;20181;-83
2021/09/06 00:42:49;;;;;;;9.27;8.38;;;;;;;;;;5094759;28;20216;-83
2021/09/06 00:45:16;;;;;;;9.60;8.38;;;;;;;;;;5094881;28;20200;-84
2021/09/06 00:47:44;;;;;;;8.63;7.68;;;;;;;;;;5093730;28;20283;-82
2021/09/06 00:50:15;;;;;;;9.50;8.48;;;;;;;;;;5093809;28;20204;-82
2021/09/06 00:52:44;;;;;;;9.50;8.45;;;;;;;;;;5092979;28;20181;-83
2021/09/06 00:55:15;;;;;;;10.18;9.20;;;;;;;;;;5092858;28;20561;-83
2021/09/06 00:57:43;;;;;;;9.60;8.45;;;;;;;;;;5093189;28;20208;-82
2021/09/06 01:00:15;;;;;;;8.77;7.68;;;;;;;;;;5093163;28;20578;-83
2021/09/06 01:02:43;;;;;;;9.50;8.50;;;;;;;;;;5093368;28;20287;-83
2021/09/06 01:05:13;;;;;;;10.52;8.93;;;;;;;;;;5092642;28;20184;-82
2021/09/06 01:07:40;;;;;;;9.20;8.23;;;;;;;;;;5093172;28;20726;-83
2021/09/06 01:10:12;;;;;;;9.35;8.13;;;;;;;;;;5092919;28;20192;-83
2021/09/06 01:12:40;;;;;;;9.43;8.40;;;;;;;;;;5092397;28;20228;-83
2021/09/06 01:15:10;;;;;;;10.50;9.40;;;;;;;;;;5093108;28;20562;-83
2021/09/06 01:17:38;;;;;;;10.93;8.63;;;;;;;;;;5092964;28;20227;-83
2021/09/06 01:20:07;;;;;;;10.48;8.50;;;;;;;;;;5092652;28;20192;-82
2021/09/06 01:22:35;;;;;;;9.55;8.27;;;;;;;;;;5090139;28;20211;-83
2021/09/06 01:25:03;;;;;;;10.63;8.75;;;;;;;;;;5092892;28;20196;-81
2021/09/06 01:27:32;;;;;;;9.68;8.10;;;;;;;;;;5090109;28;20719;-83
2021/09/06 01:30:00;;;;;;;10.07;8.00;;;;;;;;;;5092814;28;20226;-82
2021/09/06 01:32:28;;;;;;;9.43;8.52;;;;;;;;;;5092575;28;20180;-83
2021/09/06 01:34:55;;;;;;;9.80;8.82;;;;;;;;;;5092219;28;20211;-83
2021/09/06 01:37:22;;;;;;;9.45;8.30;;;;;;;;;;5092540;28;20224;-82
2021/09/06 01:39:50;;;;;;;11.63;8.93;;;;;;;;;;5092381;28;20200;-83
2021/09/06 01:42:17;;;;;;;9.18;8.20;;;;;;;;;;5092344;28;20677;-83
2021/09/06 01:44:46;;;;;;;9.77;8.77;;;;;;;;;;5092571;28;20219;-82
2021/09/06 01:47:14;;;;;;;10.15;8.30;;;;;;;;;;5092722;28;20224;-82
2021/09/06 01:49:41;;;;;;;9.63;8.13;;;;;;;;;;5091992;28;20204;-83
2021/09/06 01:52:09;;;;;;;8.48;7.53;;;;;;;;;;5092539;28;20195;-82
2021/09/06 01:54:37;;;;;;;10.02;8.35;;;;;;;;;;5092217;28;20207;-83
2021/09/06 01:57:05;;;;;;;11.48;8.73;;;;;;;;;;5095796;28;20702;-83
2021/09/06 01:59:32;;;;;;;9.30;8.30;;;;;;;;;;5096638;28;20263;-83
2021/09/06 02:02:01;;;;;;;9.93;8.57;;;;;;;;;;5096246;28;20220;-83
2021/09/06 02:04:28;;;;;;;9.52;8.20;;;;;;;;;;5095619;28;20635;-83
2021/09/06 02:06:56;;;;;;;10.80;9.30;;;;;;;;;;5095738;28;20223;-83
2021/09/06 02:09:23;;;;;;;8.20;7.38;;;;;;;;;;5096639;28;20200;-83
2021/09/06 02:11:51;;;;;;;11.27;8.35;;;;;;;;;;5096326;28;20658;-82
2021/09/06 02:14:18;;;;;;;10.45;9.05;;;;;;;;;;5095506;28;20224;-82
2021/09/06 02:16:45;;;;;;;10.15;8.75;;;;;;;;;;5080988;28;20224;-83
2021/09/06 02:19:14;;;;;;;8.77;7.88;;;;;;;;;;5075153;28;20220;-82
2021/09/06 02:21:42;;;;;;;8.88;8.02;;;;;;;;;;5075349;28;20189;-82
2021/09/06 02:24:09;;;;;;;11.77;8.32;;;;;;;;;;5084619;28;20205;-82
2021/09/06 02:26:37;;;;;;;9.52;8.52;;;;;;;;;;5084524;28;20221;-82
2021/09/06 02:29:04;;;;;;;10.10;7.75;;;;;;;;;;5075618;28;20201;-82
2021/09/06 02:31:32;;;;;;;8.30;7.50;;;;;;;;;;5075416;28;20204;-82
2021/09/06 02:33:59;;;;;;;8.95;8.02;;;;;;;;;;5082651;28;20556;-82
2021/09/06 02:36:28;;;;;;;9.25;8.07;;;;;;;;;;5095662;28;20220;-82
2021/09/06 02:38:56;;;;;;;12.70;9.63;;;;;;;;;;5095945;28;20188;-81
2021/09/06 02:41:23;;;;;;;9.63;8.55;;;;;;;;;;5087739;28;20208;-82
2021/09/06 02:43:51;;;;;;;9.30;8.30;;;;;;;;;;5081028;28;20295;-82
2021/09/06 02:46:18;;;;;;;10.35;9.35;;;;;;;;;;5095461;28;20220;-82
2021/09/06 02:48:45;;;;;;;9.93;8.80;;;;;;;;;;5075477;28;20197;-82
2021/09/06 02:51:13;;;;;;;9.40;8.23;;;;;;;;;;5075132;28;20205;-83
2021/09/06 02:53:42;;;;;;;10.60;8.75;;;;;;;;;;5079708;28;20537;-82
2021/09/06 02:56:09;;;;;;;10.10;8.73;;;;;;;;;;5095032;28;20231;-82
2021/09/06 02:58:36;;;;;;;9.23;7.10;;;;;;;;;;5095547;28;20199;-82
2021/09/06 03:01:04;;;;;;;9.18;7.90;;;;;;;;;;5095235;28;20203;-82
2021/09/06 03:03:31;;;;;;;8.45;7.10;;;;;;;;;;5094655;28;20724;-82
2021/09/06 03:05:59;;;;;;;9.68;8.48;;;;;;;;;;5094605;28;20699;-83
2021/09/06 03:08:27;;;;;;;8.30;7.50;;;;;;;;;;5095542;28;20181;-82
2021/09/06 03:10:56;;;;;;;9.38;8.38;;;;;;;;;;5095221;28;20211;-82
2021/09/06 03:13:23;;;;;;;9.60;8.63;;;;;;;;;;5076782;28;20240;-83
2021/09/06 03:15:50;;;;;;;9.27;8.07;;;;;;;;;;5086299;28;20226;-82
2021/09/06 03:18:18;;;;;;;10.30;8.75;;;;;;;;;;5086855;28;20193;-82
2021/09/06 03:20:45;;;;;;;9.10;7.55;;;;;;;;;;5074428;28;20197;-82
2021/09/06 03:23:13;;;;;;;10.70;9.38;;;;;;;;;;5075643;28;20209;-82
2021/09/06 03:25:40;;;;;;;9.68;8.27;;;;;;;;;;5095789;28;20242;-83
2021/09/06 03:28:09;;;;;;;9.43;8.45;;;;;;;;;;5095176;28;20647;-82
2021/09/06 03:30:36;;;;;;;10.30;8.38;;;;;;;;;;5095825;28;20240;-83
2021/09/06 03:33:04;;;;;;;11.68;8.65;;;;;;;;;;5074824;28;20207;-82
2021/09/06 03:35:32;;;;;;;9.27;7.97;;;;;;;;;;5074559;28;20212;-83
2021/09/06 03:37:59;;;;;;;10.63;8.30;;;;;;;;;;5083136;28;20196;-83
2021/09/06 03:40:27;;;;;;;11.10;8.63;;;;;;;;;;5075286;28;20191;-82
2021/09/06 03:42:54;;;;;;;11.68;10.00;;;;;;;;;;5090826;28;20208;-83
2021/09/06 03:45:23;;;;;;;9.00;8.05;;;;;;;;;;5094403;28;20270;-82
2021/09/06 03:47:52;;;;;;;11.73;9.13;;;;;;;;;;5074918;28;20208;-83
2021/09/06 03:50:19;;;;;;;10.07;8.90;;;;;;;;;;5081265;28;20223;-82
2021/09/06 03:52:47;;;;;;;9.63;8.68;;;;;;;;;;5084409;28;20201;-82
2021/09/06 03:55:14;;;;;;;9.10;8.13;;;;;;;;;;5089041;28;20219;-84
2021/09/06 03:57:41;;;;;;;8.27;7.47;;;;;;;;;;5089367;28;20189;-82
2021/09/06 04:00:10;;;;;;;8.77;7.70;;;;;;;;;;5087298;28;20193;-82
2021/09/06 04:02:39;;;;;;;9.70;8.55;;;;;;;;;;5095952;28;20216;-83
2021/09/06 04:05:08;;;;;;;9.30;8.35;;;;;;;;;;5092624;28;20231;-84
2021/09/06 04:07:35;;;;;;;10.35;8.63;;;;;;;;;;5075694;28;20601;-83
2021/09/06 04:10:03;;;;;;;9.77;8.52;;;;;;;;;;5092093;28;20188;-83
2021/09/06 04:12:30;;;;;;;9.95;8.05;;;;;;;;;;5095309;28;20231;-83
2021/09/06 04:14:58;;;;;;;8.75;7.80;;;;;;;;;;5094835;28;20583;-82
2021/09/06 04:17:25;;;;;;;9.65;8.25;;;;;;;;;;5076710;28;20219;-82
2021/09/06 04:19:54;;;;;;;10.05;8.73;;;;;;;;;;5079580;28;20201;-82
2021/09/06 04:22:21;;;;;;;11.05;9.90;;;;;;;;;;5074468;28;20650;-82
2021/09/06 04:24:49;;;;;;;10.88;9.45;;;;;;;;;;5088215;28;20208;-82
2021/09/06 04:27:16;;;;;;;10.02;9.02;;;;;;;;;;5094237;28;20242;-85
2021/09/06 04:29:44;;;;;;;9.68;8.57;;;;;;;;;;5094178;28;20200;-84
2021/09/06 04:32:11;;;;;;;9.82;8.73;;;;;;;;;;5093955;28;20207;-84
2021/09/06 04:34:39;;;;;;;10.30;9.20;;;;;;;;;;5094708;28;20192;-84
2021/09/06 04:37:08;;;;;;;9.70;8.55;;;;;;;;;;5073760;28;20698;-83
2021/09/06 04:39:35;;;;;;;12.10;9.48;;;;;;;;;;5073787;28;20201;-85
2021/09/06 04:42:03;;;;;;;10.20;7.70;;;;;;;;;;5074171;28;20363;-85
2021/09/06 04:44:30;;;;;;;10.55;7.93;;;;;;;;;;5085995;28;20216;-84
2021/09/06 04:46:58;;;;;;;9.35;8.07;;;;;;;;;;5080349;28;20223;-83
2021/09/06 04:49:26;;;;;;;9.65;8.70;;;;;;;;;;5074069;28;20201;-84
2021/09/06 04:51:53;;;;;;;8.20;7.25;;;;;;;;;;5089999;28;20189;-84
2021/09/06 04:54:22;;;;;;;8.57;7.55;;;;;;;;;;5094723;28;20189;-83
2021/09/06 04:56:49;;;;;;;9.07;7.32;;;;;;;;;;5093749;28;20223;-85
2021/09/06 04:59:21;;;;;;;8.38;7.35;;;;;;;;;;5093599;28;20176;-85
2021/09/06 05:01:48;;;;;;;8.63;7.72;;;;;;;;;;5092361;28;20202;-84
2021/09/06 05:04:16;;;;;;;9.40;7.78;;;;;;;;;;5090876;28;20544;-85
2021/09/06 05:06:43;;;;;;;7.68;6.88;;;;;;;;;;5076714;28;20225;-85
2021/09/06 05:09:11;;;;;;;7.75;6.60;;;;;;;;;;5074617;28;20174;-85
2021/09/06 05:11:40;;;;;;;7.00;6.18;;;;;;;;;;5074262;28;20204;-84
2021/09/06 05:14:07;;;;;;;8.68;7.43;;;;;;;;;;5075465;28;20691;-84
2021/09/06 05:16:35;;;;;;;9.07;8.18;;;;;;;;;;5084906;28;20242;-83
2021/09/06 05:19:02;;;;;;;10.77;9.10;;;;;;;;;;5086612;28;20189;-85
2021/09/06 05:21:29;;;;;;;8.80;7.90;;;;;;;;;;5072955;28;20201;-86
2021/09/06 05:23:58;;;;;;;8.45;7.38;;;;;;;;;;5079923;28;20228;-86
2021/09/06 05:26:26;;;;;;;9.30;8.27;;;;;;;;;;5093081;28;20223;-85
2021/09/06 05:28:55;;;;;;;6.60;5.93;;;;;;;;;;5089223;28;20188;-85
2021/09/06 05:31:22;;;;;;;6.13;5.53;;;;;;;;;;5085074;28;20654;-85
2021/09/06 05:33:50;;;;;;;5.05;4.65;;;;;;;;;;5092026;28;20212;-85
2021/09/06 05:36:17;;;;;;;7.07;5.82;;;;;;;;;;5080564;28;20710;-84
2021/09/06 05:38:45;;;;;;;5.25;4.72;;;;;;;;;;5076886;28;20197;-86
2021/09/06 05:41:15;;;;;;;5.40;4.63;;;;;;;;;;5078217;28;20792;-86
2021/09/06 05:43:43;;;;;;;4.53;4.13;;;;;;;;;;5091370;28;20192;-84
2021/09/06 05:46:11;;;;;;;5.30;4.72;;;;;;;;;;5097015;28;20308;-84
2021/09/06 05:48:39;;;;;;;5.88;5.13;;;;;;;;;;5097338;28;20192;-82
2021/09/06 05:51:06;;;;;;;4.97;4.47;;;;;;;;;;5097186;28;20666;-82
2021/09/06 05:53:34;;;;;;;6.20;5.60;;;;;;;;;;5097441;28;20191;-83
2021/09/06 05:56:01;;;;;;;9.25;6.70;;;;;;;;;;5096951;28;20224;-84
2021/09/06 05:58:29;;;;;;;7.80;7.00;;;;;;;;;;5097942;28;20189;-84
2021/09/06 06:00:57;;;;;;;7.13;6.43;;;;;;;;;;5098691;28;20200;-84
2021/09/06 06:03:26;;;;;;;6.97;6.28;;;;;;;;;;5098557;28;20184;-84
2021/09/06 06:05:53;;;;;;;9.30;7.47;;;;;;;;;;5097408;28;20223;-83
2021/09/06 06:08:21;;;;;;;9.35;6.95;;;;;;;;;;5098425;28;20191;-85
2021/09/06 06:10:48;;;;;;;8.05;6.93;;;;;;;;;;5097948;28;20198;-83
2021/09/06 06:13:15;;;;;;;7.57;6.78;;;;;;;;;;5097971;28;20224;-84
2021/09/06 06:15:43;;;;;;;7.82;7.03;;;;;;;;;;5093217;28;20221;-84
2021/09/06 06:18:10;;;;;;;7.20;6.55;;;;;;;;;;5078146;28;20204;-83
2021/09/06 06:20:39;;;;;;;7.38;6.57;;;;;;;;;;5078072;28;20634;-84
2021/09/06 06:23:07;;;;;;;7.28;6.57;;;;;;;;;;5087094;28;20211;-84
2021/09/06 06:29:16;;;;;;;7.75;6.95;;;;;;;;;;5095808;28;20192;-84
2021/09/06 06:31:43;;;;;;;7.38;6.47;;;;;;;;;;5097183;28;20193;-84
2021/09/06 06:34:11;;;;;;;7.13;6.43;;;;;;;;;;5096886;28;20635;-83
2021/09/06 06:36:39;;;;;;;7.05;6.35;;;;;;;;;;5097493;28;20220;-84
2021/09/06 06:39:07;;;;;;;7.25;6.53;;;;;;;;;;5097260;28;20537;-83
2021/09/06 06:41:34;;;;;;;7.68;6.80;;;;;;;;;;5097164;28;20192;-83
2021/09/06 06:44:04;;;;;;;10.40;9.02;;;;;;;;;;5095983;28;20199;-83
2021/09/06 06:46:31;;;;;;;10.82;9.73;;;;;;;;;;5096896;28;20220;-84
2021/09/06 06:48:59;;;;;;;8.68;7.50;;;;;;;;;;5096251;28;20266;-84
2021/09/06 06:51:27;;;;;;;8.85;7.97;;;;;;;;;;5095685;28;20204;-84
2021/09/06 06:53:56;;;;;;;8.50;7.55;;;;;;;;;;5097515;28;20192;-83
2021/09/06 06:56:24;;;;;;;7.60;6.40;;;;;;;;;;5095982;28;20330;-85
2021/09/06 06:58:52;;;;;;;8.48;7.60;;;;;;;;;;5096183;28;20193;-84
2021/09/06 07:01:20;;;;;;;9.23;8.32;;;;;;;;;;5096638;28;20181;-84
2021/09/06 07:03:47;;;;;;;11.40;8.80;;;;;;;;;;5097430;28;20207;-84
2021/09/06 07:06:16;;;;;;;12.10;8.95;;;;;;;;;;5096804;28;20273;-83
2021/09/06 07:08:43;;;;;;;9.57;7.63;;;;;;;;;;5096436;28;20241;-84
2021/09/06 07:11:12;;;;;;;11.02;9.82;;;;;;;;;;5096020;28;20562;-84
2021/09/06 07:13:40;;;;;;;9.35;8.35;;;;;;;;;;5096433;28;20605;-84
2021/09/06 07:16:07;;;;;;;9.30;7.88;;;;;;;;;;5096028;28;20220;-83
2021/09/06 07:18:35;;;;;;;10.10;8.98;;;;;;;;;;5095271;28;20218;-85
2021/09/06 07:21:03;;;;;;;8.73;7.82;;;;;;;;;;5082069;28;20189;-84
2021/09/06 07:23:32;;;;;;;10.93;9.60;;;;;;;;;;5076425;28;20201;-83
2021/09/06 07:25:59;;;;;;;9.02;8.10;;;;;;;;;;5075033;28;20232;-83
2021/09/06 07:28:28;;;;;;;7.55;6.32;;;;;;;;;;5075437;28;20625;-83
2021/09/06 07:30:57;;;;;;;7.28;6.55;;;;;;;;;;5075896;28;20689;-83
2021/09/06 07:33:24;;;;;;;9.60;8.70;;;;;;;;;;5075535;28;20197;-83
2021/09/06 07:35:53;;;;;;;8.32;6.72;;;;;;;;;;5074000;28;20213;-84
2021/09/06 07:38:20;;;;;;;10.88;9.45;;;;;;;;;;5090639;28;20185;-84
2021/09/06 07:40:47;;;;;;;11.38;9.65;;;;;;;;;;5080842;28;20195;-83
2021/09/06 07:43:15;;;;;;;9.02;7.97;;;;;;;;;;5093475;28;20203;-83
2021/09/06 07:45:46;;;;;;;8.85;7.93;;;;;;;;;;5094704;28;20229;-83
2021/09/06 07:48:14;;;;;;;8.15;7.35;;;;;;;;;;5094762;28;20188;-83
2021/09/06 07:50:44;;;;;;;8.00;6.93;;;;;;;;;;5094428;28;20184;-83
2021/09/06 07:53:11;;;;;;;7.70;6.90;;;;;;;;;;5094009;28;20184;-83
2021/09/06 07:55:38;;;;;;;6.82;6.18;;;;;;;;;;5094379;28;20242;-82
2021/09/06 07:58:06;;;;;;;9.52;8.52;;;;;;;;;;5094157;28;20200;-82
2021/09/06 08:00:34;;;;;;;9.43;8.45;;;;;;;;;;5094540;28;20201;-84
2021/09/06 08:03:03;;;;;;;11.55;8.32;;;;;;;;;;5082222;28;20188;-83
2021/09/06 08:05:30;;;;;;;9.35;8.45;;;;;;;;;;5073155;28;20225;-83
2021/09/06 08:07:58;;;;;;;12.45;11.15;;;;;;;;;;5085571;28;20189;-84
2021/09/06 08:10:31;;;;;;;11.88;10.65;;;;;;;;;;5093360;28;20196;-83
2021/09/06 08:12:58;;;;;;;13.32;11.68;;;;;;;;;;5094672;28;20310;-83
2021/09/06 08:15:28;;;;;;;12.30;11.07;;;;;;;;;;5076714;28;20200;-83
2021/09/06 08:17:55;;;;;;;9.98;8.98;;;;;;;;;;5093705;28;20192;-83
2021/09/06 08:20:25;;;;;;;10.27;8.52;;;;;;;;;;5103948;28;20202;-83
2021/09/06 08:22:52;;;;;;;11.52;10.07;;;;;;;;;;5114269;28;20184;-82
2021/09/06 08:25:20;;;;;;;9.85;8.82;;;;;;;;;;5113660;28;20203;-83
2021/09/06 08:27:48;;;;;;;10.07;9.07;;;;;;;;;;5102519;28;20197;-82
2021/09/06 08:30:17;;;;;;;10.05;8.73;;;;;;;;;;5073138;28;20205;-81
2021/09/06 08:32:45;;;;;;;8.07;7.28;;;;;;;;;;5077570;28;20202;-82
2021/09/06 08:35:13;;;;;;;11.85;10.40;;;;;;;;;;5093520;28;20204;-83
2021/09/06 08:37:42;;;;;;;10.25;9.25;;;;;;;;;;5093482;28;20776;-82
2021/09/06 08:40:12;;;;;;;11.25;9.70;;;;;;;;;;5085255;28;20515;-83
2021/09/06 08:42:40;;;;;;;11.88;10.68;;;;;;;;;;5072996;28;20177;-82
2021/09/06 08:45:11;;;;;;;9.00;8.10;;;;;;;;;;5080016;28;20184;-83
2021/09/06 08:47:38;;;;;;;9.52;8.35;;;;;;;;;;5092840;28;20234;-83
2021/09/06 08:50:10;;;;;;;11.68;9.88;;;;;;;;;;5087540;28;20554;-82
2021/09/06 08:52:38;;;;;;;9.80;8.85;;;;;;;;;;5072538;28;20182;-83
2021/09/06 08:55:08;;;;;;;9.63;8.70;;;;;;;;;;5075193;28;20567;-83
2021/09/06 08:57:36;;;;;;;8.38;7.53;;;;;;;;;;5092872;28;20614;-83
2021/09/06 09:00:06;;;;;;;8.00;7.18;;;;;;;;;;5091110;28;20192;-83
2021/09/06 09:02:34;;;;;;;9.18;8.27;;;;;;;;;;5093006;28;20192;-83
2021/09/06 09:05:03;;;;;;;11.32;10.13;;;;;;;;;;5092839;28;20207;-83
2021/09/06 09:07:32;;;;;;;9.75;8.75;;;;;;;;;;5092632;28;20666;-82
2021/09/06 09:10:00;;;;;;;8.18;7.38;;;;;;;;;;5086999;28;20186;-83
2021/09/06 09:12:29;;;;;;;11.57;9.07;;;;;;;;;;5072232;28;20717;-83
2021/09/06 09:15:00;;;;;;;7.68;6.93;;;;;;;;;;5072495;28;20283;-83
2021/09/06 09:17:28;;;;;;;8.65;7.78;;;;;;;;;;5071915;28;20236;-83
2021/09/06 09:20:01;;;;;;;9.75;8.85;;;;;;;;;;5077036;28;20321;-83
2021/09/06 09:22:33;;;;;;;8.50;7.65;;;;;;;;;;5087608;28;20195;-82
2021/09/06 09:25:04;;;;;;;10.00;9.00;;;;;;;;;;5089287;28;20220;-83
2021/09/06 09:27:35;;;;;;;9.73;8.82;;;;;;;;;;5072385;28;20228;-83
2021/09/06 09:30:04;;;;;;;8.32;7.53;;;;;;;;;;5081815;28;20211;-83
2021/09/06 09:32:35;;;;;;;9.40;8.50;;;;;;;;;;5073652;28;20185;-83
2021/09/06 09:35:06;;;;;;;9.52;8.68;;;;;;;;;;5072527;28;20579;-83
2021/09/06 09:37:35;;;;;;;10.70;9.70;;;;;;;;;;5072607;28;20224;-83
2021/09/06 09:40:09;;;;;;;10.70;9.70;;;;;;;;;;5073690;28;20186;-83
2021/09/06 09:42:48;;;;;;;9.27;8.38;;;;;;;;;;5072628;28;20178;-83
2021/09/06 09:45:24;;;;;;;9.55;8.55;;;;;;;;;;5073444;28;20566;-83
2021/09/06 09:47:53;;;;;;;7.93;7.22;;;;;;;;;;5072789;28;20698;-83
2021/09/06 09:50:22;;;;;;;8.73;7.90;;;;;;;;;;5073021;28;20197;-83
2021/09/06 09:52:51;;;;;;;7.32;6.60;;;;;;;;;;5072412;28;20198;-83
2021/09/06 09:55:18;;;;;;;9.00;8.10;;;;;;;;;;5072424;28;20192;-83
2021/09/06 09:57:48;;;;;;;8.93;8.05;;;;;;;;;;5072740;28;20189;-82
2021/09/06 10:00:16;;;;;;;9.07;8.27;;;;;;;;;;5072231;28;20192;-83
2021/09/06 10:02:48;;;;;;;9.15;7.75;;;;;;;;;;5072076;28;20208;-83
2021/09/06 10:05:16;;;;;;;9.35;8.45;;;;;;;;;;5072601;28;20190;-83
2021/09/06 10:07:47;;;;;;;9.20;8.32;;;;;;;;;;5071592;28;20709;-82
2021/09/06 10:10:18;;;;;;;9.15;8.35;;;;;;;;;;5072473;28;20177;-83
2021/09/06 10:12:49;;;;;;;7.32;6.72;;;;;;;;;;5071782;28;20313;-83
2021/09/06 10:15:16;;;;;;;7.35;6.65;;;;;;;;;;5071878;28;20674;-83
2021/09/06 10:17:48;;;;;;;7.18;6.47;;;;;;;;;;5074900;28;20573;-83
2021/09/06 10:20:22;;;;;;;7.03;6.45;;;;;;;;;;5075512;28;20212;-83
2021/09/06 10:23:04;;;;;;;6.93;6.32;;;;;;;;;;5075591;28;20205;-83
2021/09/06 10:25:34;;;;;;;7.65;6.95;;;;;;;;;;5076680;28;20183;-84
2021/09/06 10:28:04;;;;;;;8.73;7.93;;;;;;;;;;5076128;28;20205;-84
2021/09/06 10:30:38;;;;;;;12.07;10.88;;;;;;;;;;5075683;28;20189;-83
2021/09/06 10:33:07;;;;;;;8.77;7.97;;;;;;;;;;5075941;28;20196;-83
2021/09/06 10:35:36;;;;;;;7.47;6.88;;;;;;;;;;5075483;28;20763;-84
2021/09/06 10:38:07;;;;;;;10.18;9.23;;;;;;;;;;5076251;28;20185;-85
2021/09/06 10:40:37;;;;;;;8.80;7.90;;;;;;;;;;5076260;28;20189;-84
2021/09/06 10:43:20;;;;;;;8.50;7.70;;;;;;;;;;5076452;28;20178;-84
2021/09/06 10:45:51;;;;;;;7.35;6.72;;;;;;;;;;5075985;28;20588;-85
2021/09/06 10:48:20;;;;;;;8.07;7.38;;;;;;;;;;5077599;28;20205;-85
2021/09/06 10:50:49;;;;;;;9.50;8.63;;;;;;;;;;5075783;28;20197;-84
2021/09/06 10:53:19;;;;;;;8.77;8.07;;;;;;;;;;5075376;28;20276;-85
2021/09/06 10:55:48;;;;;;;7.38;6.68;;;;;;;;;;5075304;28;20220;-85
2021/09/06 10:58:17;;;;;;;8.07;7.38;;;;;;;;;;5075638;28;20200;-86
2021/09/06 11:00:51;;;;;;;8.80;8.00;;;;;;;;;;5075553;28;20178;-85
2021/09/06 11:03:19;;;;;;;7.90;7.10;;;;;;;;;;5075071;28;20254;-85
2021/09/06 11:05:54;;;;;;;7.57;6.88;;;;;;;;;;5075021;28;20221;-85
2021/09/06 11:08:27;;;;;;;9.18;8.38;;;;;;;;;;5074959;28;20571;-85
2021/09/06 11:10:55;;;;;;;7.95;7.28;;;;;;;;;;5075269;28;20185;-85
2021/09/06 11:13:24;;;;;;;7.28;6.68;;;;;;;;;;5077157;28;20221;-85
2021/09/06 11:15:52;;;;;;;8.23;7.43;;;;;;;;;;5075182;28;20213;-85
2021/09/06 11:18:19;;;;;;;7.30;6.70;;;;;;;;;;5075113;28;20202;-85
2021/09/06 11:20:47;;;;;;;7.35;6.75;;;;;;;;;;5075172;28;20201;-85
2021/09/06 11:23:15;;;;;;;6.05;5.55;;;;;;;;;;5075225;28;20177;-85
2021/09/06 11:25:43;;;;;;;5.07;4.68;;;;;;;;;;5074836;28;20221;-85
2021/09/06 11:28:13;;;;;;;6.25;5.75;;;;;;;;;;5074189;28;20205;-86
2021/09/06 11:30:46;;;;;;;8.68;7.95;;;;;;;;;;5075182;28;20189;-85
2021/09/06 11:33:15;;;;;;;8.98;8.18;;;;;;;;;;5075222;28;20193;-85
2021/09/06 11:35:44;;;;;;;8.98;8.10;;;;;;;;;;5074541;28;20295;-85
2021/09/06 11:38:13;;;;;;;7.10;6.50;;;;;;;;;;5074319;28;20182;-85
2021/09/06 11:40:43;;;;;;;6.43;5.90;;;;;;;;;;5074044;28;20713;-85
2021/09/06 11:43:11;;;;;;;5.93;5.50;;;;;;;;;;5074891;28;20763;-85
2021/09/06 11:45:38;;;;;;;6.90;6.35;;;;;;;;;;5074638;28;20244;-85
2021/09/06 11:48:09;;;;;;;5.30;4.90;;;;;;;;;;5074312;28;20220;-84
2021/09/06 11:50:40;;;;;;;6.38;5.80;;;;;;;;;;5074594;28;20181;-84
2021/09/06 11:53:10;;;;;;;6.43;5.93;;;;;;;;;;5074253;28;20185;-86
2021/09/06 11:55:39;;;;;;;6.78;6.18;;;;;;;;;;5073826;28;20216;-86
2021/09/06 11:58:08;;;;;;;7.07;6.47;;;;;;;;;;5074004;28;20685;-85
2021/09/06 12:00:37;;;;;;;6.82;6.22;;;;;;;;;;5074051;28;20178;-85
2021/09/06 12:03:07;;;;;;;5.78;5.28;;;;;;;;;;5073943;28;20197;-85
2021/09/06 12:05:40;;;;;;;5.47;5.00;;;;;;;;;;5074014;28;20192;-85
2021/09/06 12:08:12;;;;;;;6.18;5.60;;;;;;;;;;5074324;28;20205;-85
2021/09/06 12:10:41;;;;;;;4.80;4.40;;;;;;;;;;5074023;28;20181;-85
2021/09/06 12:13:10;;;;;;;6.15;5.65;;;;;;;;;;5073867;28;20225;-85
2021/09/06 12:15:53;;;;;;;6.40;5.90;;;;;;;;;;5074964;28;20213;-84
2021/09/06 12:18:22;;;;;;;6.28;5.78;;;;;;;;;;5074422;28;20185;-85
2021/09/06 12:21:02;;;;;;;5.60;5.10;;;;;;;;;;5073871;28;20192;-85
2021/09/06 12:23:31;;;;;;;5.60;5.13;;;;;;;;;;5073534;28;20193;-86
2021/09/06 12:26:00;;;;;;;4.95;4.55;;;;;;;;;;5073598;28;20229;-85
2021/09/06 12:28:27;;;;;;;7.00;6.30;;;;;;;;;;5073809;28;20201;-85
2021/09/06 12:31:00;;;;;;;6.65;6.05;;;;;;;;;;5073701;28;20583;-85
2021/09/06 12:33:31;;;;;;;6.50;5.82;;;;;;;;;;5074032;28;20192;-86
2021/09/06 12:36:03;;;;;;;6.68;6.18;;;;;;;;;;5073142;28;20730;-85
2021/09/06 12:38:32;;;;;;;5.90;5.40;;;;;;;;;;5073197;28;20557;-86
2021/09/06 12:41:00;;;;;;;7.10;6.40;;;;;;;;;;5072781;28;20587;-86
2021/09/06 12:43:28;;;;;;;6.18;5.68;;;;;;;;;;5073345;28;20207;-85
2021/09/06 12:45:55;;;;;;;6.22;5.72;;;;;;;;;;5073085;28;20223;-85
2021/09/06 12:48:25;;;;;;;6.40;5.80;;;;;;;;;;5073040;28;20677;-85
2021/09/06 12:50:54;;;;;;;5.65;5.13;;;;;;;;;;5073653;28;20243;-85
2021/09/06 12:53:22;;;;;;;5.55;5.05;;;;;;;;;;5072797;28;20207;-86
2021/09/06 12:55:50;;;;;;;6.65;6.07;;;;;;;;;;5073285;28;20591;-84
2021/09/06 12:58:17;;;;;;;6.38;5.78;;;;;;;;;;5073426;28;20181;-85
2021/09/06 13:00:44;;;;;;;5.90;5.40;;;;;;;;;;5073078;28;20189;-84
2021/09/06 13:03:12;;;;;;;5.22;4.82;;;;;;;;;;5072028;28;20215;-85
2021/09/06 13:05:39;;;;;;;5.90;5.40;;;;;;;;;;5072406;28;20733;-85
2021/09/06 13:08:08;;;;;;;6.55;5.95;;;;;;;;;;5072574;28;20228;-85
2021/09/06 13:10:36;;;;;;;7.10;6.40;;;;;;;;;;5072431;28;20208;-85
2021/09/06 13:13:08;;;;;;;5.97;5.47;;;;;;;;;;5072392;28;20233;-86
2021/09/06 13:15:35;;;;;;;7.28;6.22;;;;;;;;;;5072301;28;20185;-85
2021/09/06 13:18:03;;;;;;;6.35;5.82;;;;;;;;;;5072737;28;20497;-84
2021/09/06 13:20:30;;;;;;;6.80;5.20;;;;;;;;;;5073628;28;20186;-85
2021/09/06 13:22:58;;;;;;;6.05;5.55;;;;;;;;;;5073145;28;20232;-86
2021/09/06 13:25:26;;;;;;;6.80;6.07;;;;;;;;;;5072708;28;20632;-85
2021/09/06 13:27:54;;;;;;;5.50;5.10;;;;;;;;;;5072775;28;20261;-85
2021/09/06 13:30:21;;;;;;;5.72;5.22;;;;;;;;;;5072577;28;20217;-85
2021/09/06 13:32:49;;;;;;;6.32;5.75;;;;;;;;;;5073118;28;20192;-86
2021/09/06 13:35:16;;;;;;;7.78;7.07;;;;;;;;;;5072874;28;20185;-85
2021/09/06 13:37:44;;;;;;;6.03;5.53;;;;;;;;;;5072993;28;20187;-85
2021/09/06 13:40:12;;;;;;;6.22;5.65;;;;;;;;;;5072859;28;20216;-86
2021/09/06 13:42:41;;;;;;;7.10;6.40;;;;;;;;;;5072330;28;20193;-85
2021/09/06 13:45:10;;;;;;;7.22;6.63;;;;;;;;;;5072871;28;20260;-85
2021/09/06 13:47:37;;;;;;;7.20;6.57;;;;;;;;;;5073202;28;20221;-85
2021/09/06 13:50:08;;;;;;;6.60;5.90;;;;;;;;;;5073436;28;20292;-84
2021/09/06 13:52:35;;;;;;;6.57;5.93;;;;;;;;;;5077462;28;20190;-84
2021/09/06 13:55:03;;;;;;;6.78;5.65;;;;;;;;;;5077187;28;20189;-83
2021/09/06 13:57:31;;;;;;;6.28;5.68;;;;;;;;;;5076705;28;20216;-84
2021/09/06 14:00:00;;;;;;;6.07;5.57;;;;;;;;;;5077189;28;20186;-83
2021/09/06 14:02:31;;;;;;;6.43;5.80;;;;;;;;;;5078211;28;20193;-84
2021/09/06 14:04:58;;;;;;;5.70;5.20;;;;;;;;;;5076983;28;20216;-85
2021/09/06 14:07:26;;;;;;;5.70;5.15;;;;;;;;;;5078925;28;20225;-84
2021/09/06 14:09:53;;;;;;;6.95;6.35;;;;;;;;;;5078982;28;20229;-84
2021/09/06 14:12:21;;;;;;;5.70;5.20;;;;;;;;;;5075794;28;20200;-83
2021/09/06 14:14:48;;;;;;;5.45;4.95;;;;;;;;;;5089821;28;20224;-84
2021/09/06 14:17:17;;;;;;;5.50;5.03;;;;;;;;;;5076132;28;20228;-83
2021/09/06 14:19:44;;;;;;;6.85;6.22;;;;;;;;;;5076072;28;20189;-83
2021/09/06 14:22:12;;;;;;;6.00;5.45;;;;;;;;;;5076141;28;20189;-85
2021/09/06 14:24:40;;;;;;;6.57;5.97;;;;;;;;;;5075769;28;20197;-82
2021/09/06 14:27:08;;;;;;;7.60;6.93;;;;;;;;;;5076194;28;20590;-84
2021/09/06 14:29:36;;;;;;;6.32;5.68;;;;;;;;;;5075785;28;20209;-83
2021/09/06 14:32:06;;;;;;;6.35;5.45;;;;;;;;;;5076005;28;20563;-83
2021/09/06 14:34:35;;;;;;;6.13;5.63;;;;;;;;;;5075844;28;20667;-83
2021/09/06 14:37:02;;;;;;;6.00;5.50;;;;;;;;;;5075698;28;20733;-82
2021/09/06 14:39:29;;;;;;;5.55;5.05;;;;;;;;;;5075671;28;20177;-83
2021/09/06 14:41:58;;;;;;;5.40;5.00;;;;;;;;;;5075123;28;20193;-82
2021/09/06 14:44:25;;;;;;;5.05;4.65;;;;;;;;;;5075281;28;20181;-83
2021/09/06 14:46:52;;;;;;;4.90;4.50;;;;;;;;;;5075042;28;20225;-83
2021/09/06 14:49:20;;;;;;;5.55;5.05;;;;;;;;;;5075336;28;20185;-83
2021/09/06 14:51:49;;;;;;;5.65;5.15;;;;;;;;;;5076061;28;20185;-82